Airfield :







YOU CAN JOIN US ON...

 
LOGIN :

Register | Disclaimer

   EN    FR    IT 

 









Legend :    VFR   Marginal VFR   IFR   Intensive IFR   Very Intensive IFR
Visi :
Ceiling :
>= 8 km
>= 3000ft
5 to 8 km
1000 to 3000 ft
1500m to 5 km
500 to 1000 ft
800 to 1500m
200 to 500 ft
< 800m
< 200 ft
Symbols :   Thunderstorms  Fog  Heavy snow  Heavy precipitations  Wind > 20 kt






- Airport Elevation : 534 ft
- IATA code : PQI


KPQI - Northern Maine Regional Arpt At Presque Isle

CURRENT METAR :
  • 162056Z AUTO 31006KT 10SM CLR M05/M13 A3037 RMK AO2 SLP320 T10501128 53016

EXPIRED METARs :
  • 161956Z AUTO 31010G15KT 10SM CLR M04/M13 A3034 RMK AO2 SLP311 T10441128
  • 161856Z AUTO 33018G22KT 10SM CLR M04/M13 A3032 RMK AO2 SLP303 T10391128

TAF KPQI
Valid from the 16 at 18:00 until the 17 at 18:00 UTC


161720Z 1618/1718 31015G24KT P6SM FEW050
FM162100 30006KT P6SM SKC
FM171200 23002KT P6SM FEW120



MET'MAP, your aeronautical weather chart ! - Copyright ORBIFLY December 2007 - Disclaimer

ORBIFLY MET'MAP TEAM :

Programming & Development : Alexandra Zaïnal
Concept & Development : Baudouin d'Aumeries
Co-Development & Prog : Marc-Olivier Méhu
Technical & hardware support : Manuel Goepfert

Contact : metmap@orbifly.com




SOURCES & CREDITS :

   NOAA